Svitzer Maitland — VHDK — position and weather

sailwx.info

Track history (hours):
 
Tides and Currents Weather Stations Pressure Air Temp Water Temp Dewpoint Dewpoint Depression Visibility Wind Speed Wind Dir Waves Ship Positions

Svitzer Maitland

Last reported at 2018-Jun-25 04:15 UTC. Time now 2018-Jun-25 04:29 UTC.
Position S 32°55' E 151°47'.

Length 30 m; draft 4.5 m.

Type: Tug. MMSI: 503624000.

Date/timePositionNaut miles runAvg speedWind from/ knotsBaromVisibWave heightAir tempDewpointWater temp
2018-Jun-25 04:15S 32°55' E 151°47'1 1.3
2018-Jun-25 03:13S 32°54' E 151°46'1 1.2
2018-Jun-25 02:20S 32°53' E 151°46'2 6.0
2018-Jun-25 01:58S 32°55' E 151°47'0 0.1
2018-Jun-25 00:13S 32°55' E 151°46'0 0.0
2018-Jun-24 23:57S 32°55' E 151°46'0 0.0
2018-Jun-24 23:28S 32°55' E 151°46'0 0.2
2018-Jun-24 23:00S 32°55' E 151°46'2 2.7
2018-Jun-24 22:14S 32°53' E 151°46'0 2.0
2018-Jun-24 22:00S 32°54' E 151°46'2 4.1
2018-Jun-24 21:30S 32°55' E 151°48'1 2.2
2018-Jun-24 20:57S 32°55' E 151°47'2 3.7
2018-Jun-24 20:30S 32°54' E 151°46'0 0.4
2018-Jun-24 19:59S 32°54' E 151°46'2 3.2
2018-Jun-24 19:28S 32°55' E 151°46'0 0.0
2018-Jun-24 18:58S 32°55' E 151°46'0 0.0
2018-Jun-24 17:37S 32°55' E 151°46'0 0.0
2018-Jun-24 17:26S 32°55' E 151°46'0 0.0
2018-Jun-24 16:51S 32°55' E 151°46'0 0.0
2018-Jun-24 16:28S 32°55' E 151°46'0 0.0
2018-Jun-24 16:00S 32°55' E 151°46'0 0.0
2018-Jun-24 15:30S 32°55' E 151°46'0 0.0
2018-Jun-24 15:00S 32°55' E 151°46'0 0.0
2018-Jun-24 14:29S 32°55' E 151°46'0 0.0
2018-Jun-24 14:00S 32°55' E 151°46'0 0.1
2018-Jun-24 12:06S 32°55' E 151°46'0 4.5
2018-Jun-24 12:00S 32°55' E 151°46'0 0.1
2018-Jun-24 11:30S 32°55' E 151°46'1 0.4
2018-Jun-24 09:59S 32°54' E 151°46'1 1.5
2018-Jun-24 09:29S 32°54' E 151°46'2 3.7
2018-Jun-24 08:55S 32°55' E 151°48'2 1.1
2018-Jun-24 07:30S 32°55' E 151°46'2 0.8
2018-Jun-24 05:16S 32°54' E 151°46'1 3.8
2018-Jun-24 04:53S 32°55' E 151°47'0 0.2
2018-Jun-24 03:23S 32°55' E 151°46'2 1.5
2018-Jun-24 02:17S 32°54' E 151°46'2 3.6
2018-Jun-24 01:50S 32°55' E 151°47'2 5.1
2018-Jun-24 01:26S 32°55' E 151°49'2 3.3
2018-Jun-24 00:45S 32°55' E 151°46'1 3.7
2018-Jun-24 00:25S 32°54' E 151°46'1 1.3
2018-Jun-23 23:54S 32°53' E 151°46'1 1.7
2018-Jun-23 23:29S 32°54' E 151°46'2 3.7
2018-Jun-23 23:00S 32°55' E 151°48'0 0.6
2018-Jun-23 22:28S 32°55' E 151°48'1 3.0
2018-Jun-23 22:01S 32°55' E 151°46'0 0.5
2018-Jun-23 21:27S 32°55' E 151°46'2 2.5
2018-Jun-23 20:45S 32°54' E 151°46'1 2.7
2018-Jun-23 20:29S 32°54' E 151°46'2 4.2
2018-Jun-23 19:58S 32°54' E 151°49'3 1.6
2018-Jun-23 18:01S 32°53' E 151°45'0 9.5
2018-Jun-23 17:59S 32°53' E 151°46'0 0.4
2018-Jun-23 17:27S 32°53' E 151°46'0 0.0
2018-Jun-23 17:00S 32°53' E 151°46'1 1.0
2018-Jun-23 15:51S 32°55' E 151°46'1 3.3
2018-Jun-23 15:30S 32°53' E 151°46'1 1.8
2018-Jun-23 15:00S 32°54' E 151°46'1 1.4
2018-Jun-23 14:28S 32°54' E 151°46'2 4.0
2018-Jun-23 13:59S 32°55' E 151°47'1 1.1
2018-Jun-23 13:13S 32°55' E 151°46'1 2.6
2018-Jun-23 13:00S 32°54' E 151°46'1 2.3
2018-Jun-23 12:30S 32°55' E 151°46'0 0.1
2018-Jun-23 11:05S 32°55' E 151°46'0 0.0
2018-Jun-23 10:56S 32°55' E 151°46'0 0.2
2018-Jun-23 10:21S 32°55' E 151°46'2 1.4
2018-Jun-23 09:09S 32°54' E 151°46'2 4.4
2018-Jun-23 08:47S 32°55' E 151°47'0 0.3
2018-Jun-23 07:46S 32°55' E 151°46'1 3.3
2018-Jun-23 07:30S 32°54' E 151°46'1 0.3
2018-Jun-23 05:14S 32°53' E 151°46'1 3.3
2018-Jun-23 04:57S 32°54' E 151°46'2 4.1
2018-Jun-23 04:30S 32°55' E 151°48'2 2.1
2018-Jun-23 03:40S 32°55' E 151°46'1 1.2
2018-Jun-23 02:34S 32°53' E 151°46'1 6.9
2018-Jun-23 02:29S 32°54' E 151°46'1 1.7
2018-Jun-23 01:38S 32°55' E 151°46'0 1.1
2018-Jun-23 01:29S 32°55' E 151°46'1 1.6
2018-Jun-23 00:57S 32°55' E 151°47'1 1.2
2018-Jun-23 00:30S 32°55' E 151°48'1 2.3
2018-Jun-23 00:00S 32°55' E 151°46'0 0.0
2018-Jun-22 23:30S 32°55' E 151°46'0 0.0
2018-Jun-22 23:00S 32°55' E 151°46'0 0.0
2018-Jun-22 22:29S 32°55' E 151°46'0 0.0
2018-Jun-22 21:58S 32°55' E 151°46'0 0.0
2018-Jun-22 21:28S 32°55' E 151°46'0 0.0
2018-Jun-22 21:00S 32°55' E 151°46'0 0.0
2018-Jun-22 20:28S 32°55' E 151°46'0 0.0
2018-Jun-22 20:00S 32°55' E 151°46'0 0.0
2018-Jun-22 19:30S 32°55' E 151°46'0 0.0
2018-Jun-22 19:00S 32°55' E 151°46'0 0.0
2018-Jun-22 18:30S 32°55' E 151°46'0 0.0
2018-Jun-22 15:36S 32°55' E 151°46'0 0.0
2018-Jun-22 15:30S 32°55' E 151°46'0 0.0
2018-Jun-22 14:56S 32°55' E 151°46'0 0.0
2018-Jun-22 14:28S 32°55' E 151°46'0 0.0
2018-Jun-22 13:58S 32°55' E 151°46'0 0.0
2018-Jun-22 13:30S 32°55' E 151°46'0 0.0
2018-Jun-22 12:57S 32°55' E 151°46'0 0.0
2018-Jun-22 12:27S 32°55' E 151°46'0 0.0
2018-Jun-22 12:00S 32°55' E 151°46'0 0.0
2018-Jun-22 11:27S 32°55' E 151°46'1 2.2
2018-Jun-22 10:59S 32°54' E 151°46'0 0.8
2018-Jun-22 10:25S 32°55' E 151°46'1 2.7
2018-Jun-22 10:00S 32°55' E 151°48'1 2.1
2018-Jun-22 09:29S 32°55' E 151°46'1 2.0
2018-Jun-22 09:00S 32°54' E 151°46'1 1.4
2018-Jun-22 08:05S 32°53' E 151°46'0 3.0
2018-Jun-22 08:00S 32°53' E 151°46'2 3.4
2018-Jun-22 07:30S 32°55' E 151°46'1 2.5
2018-Jun-22 07:00S 32°55' E 151°48'2 1.3
2018-Jun-22 05:14S 32°53' E 151°46'2 7.1
2018-Jun-22 04:55S 32°55' E 151°47'1 1.7
2018-Jun-22 04:28S 32°55' E 151°46'2 1.7
2018-Jun-22 03:31S 32°53' E 151°46'0 0.3
2018-Jun-22 03:30S 32°53' E 151°46'2 4.3
2018-Jun-22 02:58S 32°55' E 151°48'1 2.9
2018-Jun-22 02:29S 32°55' E 151°46'0 0.7
2018-Jun-22 01:57S 32°54' E 151°46'1 0.4
2018-Jun-21 23:29S 32°55' E 151°46'0 0.0
2018-Jun-21 22:58S 32°55' E 151°46'0 0.0
2018-Jun-21 22:19S 32°55' E 151°46'0 0.0
2018-Jun-21 21:27S 32°55' E 151°46'0 0.0
2018-Jun-21 20:09S 32°55' E 151°46'0 0.0
2018-Jun-21 19:11S 32°55' E 151°46'0 0.0
2018-Jun-21 18:54S 32°55' E 151°46'0 0.0
2018-Jun-21 18:24S 32°55' E 151°46'0 0.0
2018-Jun-21 17:52S 32°55' E 151°46'0 0.0
2018-Jun-21 17:30S 32°55' E 151°46'0 0.0
2018-Jun-21 17:00S 32°55' E 151°46'0 0.0
2018-Jun-21 16:30S 32°55' E 151°46'0 0.0
2018-Jun-21 16:00S 32°55' E 151°46'0 0.0
2018-Jun-21 15:30S 32°55' E 151°46'0 0.0
2018-Jun-21 14:58S 32°55' E 151°46'0 0.0
2018-Jun-21 14:30S 32°55' E 151°46'0 0.0
2018-Jun-21 13:57S 32°55' E 151°46'0 0.0
2018-Jun-21 13:30S 32°55' E 151°46'0 0.0
2018-Jun-21 13:00S 32°55' E 151°46'0 0.0
2018-Jun-21 12:29S 32°55' E 151°46'0 0.0
2018-Jun-21 11:57S 32°55' E 151°46'0 0.0
2018-Jun-21 11:30S 32°55' E 151°46'0 0.6
2018-Jun-21 10:53S 32°55' E 151°46'1 3.7
2018-Jun-21 10:30S 32°54' E 151°46'2 3.4
2018-Jun-21 09:59S 32°55' E 151°46'0 0.0
2018-Jun-21 07:47S 32°55' E 151°46'0 0.0
2018-Jun-21 07:24S 32°55' E 151°46'0 0.0
2018-Jun-21 06:44S 32°55' E 151°46'0 0.0
2018-Jun-21 06:29S 32°55' E 151°46'0 0.0
2018-Jun-21 05:59S 32°55' E 151°46'0 0.0
2018-Jun-21 05:30S 32°55' E 151°46'0 0.8
2018-Jun-21 04:57S 32°55' E 151°46'1 1.4
2018-Jun-21 04:05S 32°54' E 151°46'0 3.7
2018-Jun-21 03:58S 32°54' E 151°46'2 3.7
2018-Jun-21 03:30S 32°55' E 151°48'0 0.7
2018-Jun-21 03:00S 32°55' E 151°48'1 2.6
2018-Jun-21 02:26S 32°54' E 151°46'1 1.0
2018-Jun-21 01:43S 32°54' E 151°46'2 7.4
2018-Jun-21 01:29S 32°55' E 151°47'1 1.3
2018-Jun-21 01:00S 32°55' E 151°46'0 0.3
2018-Jun-20 23:27S 32°54' E 151°46'2 3.5
2018-Jun-20 23:00S 32°55' E 151°48'1 1.3
2018-Jun-20 22:28S 32°55' E 151°47'1 1.3
2018-Jun-20 21:52S 32°55' E 151°46'0 0.0
2018-Jun-20 21:30S 32°55' E 151°46'0 0.2
2018-Jun-20 21:00S 32°55' E 151°46'2 1.5
2018-Jun-20 19:43S 32°53' E 151°46'2 3.3
2018-Jun-20 19:06S 32°55' E 151°47'1 7.6
2018-Jun-20 18:58S 32°55' E 151°48'1 2.8
2018-Jun-20 18:27S 32°55' E 151°46'0 0.2
2018-Jun-20 17:59S 32°55' E 151°46'1 0.8
2018-Jun-20 17:12S 32°55' E 151°46'0 0.4
2018-Jun-20 16:52S 32°55' E 151°46'0 0.0
2018-Jun-20 16:28S 32°55' E 151°46'0 0.0
2018-Jun-20 16:00S 32°55' E 151°46'0 0.0
2018-Jun-20 15:21S 32°55' E 151°46'0 0.2
2018-Jun-20 14:53S 32°55' E 151°46'0 0.2
2018-Jun-20 14:14S 32°55' E 151°46'0 0.6
2018-Jun-20 13:59S 32°55' E 151°46'0 0.1
2018-Jun-20 11:01S 32°55' E 151°46'1 8.2
2018-Jun-20 10:57S 32°55' E 151°47'2 0.4
2018-Jun-20 06:35S 32°54' E 151°46'1 5.3
2018-Jun-20 06:19S 32°55' E 151°47'1 0.9
2018-Jun-20 05:39S 32°55' E 151°47'2 2.1
2018-Jun-20 04:42S 32°54' E 151°46'0 0.2
2018-Jun-20 04:03S 32°53' E 151°46'2 5.3
2018-Jun-20 03:43S 32°55' E 151°47'1 2.0
2018-Jun-20 03:09S 32°54' E 151°46'1 2.7
2018-Jun-20 02:51S 32°53' E 151°46'0 0.1
2018-Jun-20 02:26S 32°53' E 151°46'2 4.8
2018-Jun-20 01:58S 32°55' E 151°48'2 1.2
2018-Jun-20 00:05S 32°53' E 151°46'0 0.5
2018-Jun-19 23:58S 32°53' E 151°46'2 4.4
2018-Jun-19 23:27S 32°55' E 151°47'1 2.3
2018-Jun-19 22:57S 32°55' E 151°46'0 0.9
2018-Jun-19 22:30S 32°54' E 151°46'1 0.4
2018-Jun-19 19:42S 32°55' E 151°46'0 0.0
2018-Jun-19 17:39S 32°55' E 151°46'0 0.0
2018-Jun-19 17:25S 32°55' E 151°46'0 0.0
2018-Jun-19 14:51S 32°55' E 151°46'0 0.0
2018-Jun-19 14:06S 32°55' E 151°46'0 0.1
2018-Jun-19 13:59S 32°55' E 151°46'0 0.0
2018-Jun-19 11:46S 32°55' E 151°46'0 0.0
2018-Jun-19 06:59S 32°55' E 151°46'0 0.0
2018-Jun-18 06:19S 32°55' E 151°46'0 0.0
2018-Jun-18 06:00S 32°55' E 151°46'0 0.0
2018-Jun-18 05:30S 32°55' E 151°46'0 0.0
2018-Jun-18 04:55S 32°55' E 151°46'1 2.6
2018-Jun-18 04:30S 32°54' E 151°46'1 0.7
2018-Jun-18 03:30S 32°54' E 151°46'2 3.9
2018-Jun-18 02:58S 32°55' E 151°48'2 3.1
2018-Jun-18 02:28S 32°55' E 151°46'2 3.5
2018-Jun-18 01:57S 32°54' E 151°46'0 0.2
2018-Jun-18 01:28S 32°53' E 151°46'2 3.3
2018-Jun-18 00:56S 32°55' E 151°47'0 0.4
2018-Jun-18 00:07S 32°55' E 151°46'0 0.5
2018-Jun-17 23:57S 32°55' E 151°46'2 1.1
2018-Jun-17 22:31S 32°54' E 151°46'0 8.9
2018-Jun-17 22:30S 32°54' E 151°46'2 3.8
2018-Jun-17 22:00S 32°55' E 151°48'1 0.1
2018-Jun-17 03:04S 32°55' E 151°46'0 6.5
2018-Jun-17 03:00S 32°55' E 151°47'2 1.8
2018-Jun-17 02:10S 32°54' E 151°46'1 0.5
2018-Jun-17 00:28S 32°55' E 151°46'2 2.3
2018-Jun-16 23:46S 32°53' E 151°46'0 0.0
2018-Jun-16 23:25S 32°53' E 151°46'0 0.2
2018-Jun-16 21:50S 32°54' E 151°46'1 2.7
2018-Jun-16 21:29S 32°55' E 151°46'2 4.0
2018-Jun-16 20:57S 32°54' E 151°49'2 4.2
2018-Jun-16 20:26S 32°55' E 151°46'1 0.0
2018-Jun-16 03:13S 32°55' E 151°46'2 1.8
2018-Jun-16 02:06S 32°53' E 151°46'0 3.5
2018-Jun-16 02:01S 32°54' E 151°46'2 4.0
2018-Jun-16 01:29S 32°55' E 151°48'2 1.6
2018-Jun-16 00:15S 32°55' E 151°46'0 0.9
2018-Jun-15 23:45S 32°55' E 151°46'1 3.1
2018-Jun-15 23:29S 32°54' E 151°46'1 0.2
2018-Jun-15 15:20S 32°55' E 151°46'2 1.8
2018-Jun-15 14:16S 32°53' E 151°46'2 3.8
2018-Jun-15 13:40S 32°55' E 151°48'2 1.2
2018-Jun-15 12:16S 32°55' E 151°46'2 1.4
2018-Jun-15 10:54S 32°53' E 151°46'0 0.2
2018-Jun-15 10:29S 32°53' E 151°46'2 0.9
2018-Jun-15 08:21S 32°55' E 151°46'2 1.9
2018-Jun-15 07:26S 32°54' E 151°46'2 4.4
2018-Jun-15 07:00S 32°55' E 151°47'  
Track history (hours):
 
Tides and Currents Weather Stations Pressure Air Temp Water Temp Dewpoint Dewpoint Depression Visibility Wind Speed Wind Dir Waves Ship Positions

Svitzer Maitland

Last reported at 2018-Jun-25 04:15 UTC. Time now 2018-Jun-25 04:29 UTC.
Position S 32°55' E 151°47'.

Length 30 m; draft 4.5 m.

Type: Tug. MMSI: 503624000.

Date/timePositionNaut miles runAvg speedWind from/ knotsBaromVisibWave heightAir tempDewpointWater temp
2018-Jun-25 04:15S 32°55' E 151°47'1 1.3
2018-Jun-25 03:13S 32°54' E 151°46'1 1.2
2018-Jun-25 02:20S 32°53' E 151°46'2 6.0
2018-Jun-25 01:58S 32°55' E 151°47'0 0.1
2018-Jun-25 00:13S 32°55' E 151°46'0 0.0
2018-Jun-24 23:57S 32°55' E 151°46'0 0.0
2018-Jun-24 23:28S 32°55' E 151°46'0 0.2
2018-Jun-24 23:00S 32°55' E 151°46'2 2.7
2018-Jun-24 22:14S 32°53' E 151°46'0 2.0
2018-Jun-24 22:00S 32°54' E 151°46'2 4.1
2018-Jun-24 21:30S 32°55' E 151°48'1 2.2
2018-Jun-24 20:57S 32°55' E 151°47'2 3.7
2018-Jun-24 20:30S 32°54' E 151°46'0 0.4
2018-Jun-24 19:59S 32°54' E 151°46'2 3.2
2018-Jun-24 19:28S 32°55' E 151°46'0 0.0
2018-Jun-24 18:58S 32°55' E 151°46'0 0.0
2018-Jun-24 17:37S 32°55' E 151°46'0 0.0
2018-Jun-24 17:26S 32°55' E 151°46'0 0.0
2018-Jun-24 16:51S 32°55' E 151°46'0 0.0
2018-Jun-24 16:28S 32°55' E 151°46'0 0.0
2018-Jun-24 16:00S 32°55' E 151°46'0 0.0
2018-Jun-24 15:30S 32°55' E 151°46'0 0.0
2018-Jun-24 15:00S 32°55' E 151°46'0 0.0
2018-Jun-24 14:29S 32°55' E 151°46'0 0.0
2018-Jun-24 14:00S 32°55' E 151°46'0 0.1
2018-Jun-24 12:06S 32°55' E 151°46'0 4.5
2018-Jun-24 12:00S 32°55' E 151°46'0 0.1
2018-Jun-24 11:30S 32°55' E 151°46'1 0.4
2018-Jun-24 09:59S 32°54' E 151°46'1 1.5
2018-Jun-24 09:29S 32°54' E 151°46'2 3.7
2018-Jun-24 08:55S 32°55' E 151°48'2 1.1
2018-Jun-24 07:30S 32°55' E 151°46'2 0.8
2018-Jun-24 05:16S 32°54' E 151°46'1 3.8
2018-Jun-24 04:53S 32°55' E 151°47'0 0.2
2018-Jun-24 03:23S 32°55' E 151°46'2 1.5
2018-Jun-24 02:17S 32°54' E 151°46'2 3.6
2018-Jun-24 01:50S 32°55' E 151°47'2 5.1
2018-Jun-24 01:26S 32°55' E 151°49'2 3.3
2018-Jun-24 00:45S 32°55' E 151°46'1 3.7
2018-Jun-24 00:25S 32°54' E 151°46'1 1.3
2018-Jun-23 23:54S 32°53' E 151°46'1 1.7
2018-Jun-23 23:29S 32°54' E 151°46'2 3.7
2018-Jun-23 23:00S 32°55' E 151°48'0 0.6
2018-Jun-23 22:28S 32°55' E 151°48'1 3.0
2018-Jun-23 22:01S 32°55' E 151°46'0 0.5
2018-Jun-23 21:27S 32°55' E 151°46'2 2.5
2018-Jun-23 20:45S 32°54' E 151°46'1 2.7
2018-Jun-23 20:29S 32°54' E 151°46'2 4.2
2018-Jun-23 19:58S 32°54' E 151°49'3 1.6
2018-Jun-23 18:01S 32°53' E 151°45'0 9.5
2018-Jun-23 17:59S 32°53' E 151°46'0 0.4
2018-Jun-23 17:27S 32°53' E 151°46'0 0.0
2018-Jun-23 17:00S 32°53' E 151°46'1 1.0
2018-Jun-23 15:51S 32°55' E 151°46'1 3.3
2018-Jun-23 15:30S 32°53' E 151°46'1 1.8
2018-Jun-23 15:00S 32°54' E 151°46'1 1.4
2018-Jun-23 14:28S 32°54' E 151°46'2 4.0
2018-Jun-23 13:59S 32°55' E 151°47'1 1.1
2018-Jun-23 13:13S 32°55' E 151°46'1 2.6
2018-Jun-23 13:00S 32°54' E 151°46'1 2.3
2018-Jun-23 12:30S 32°55' E 151°46'0 0.1
2018-Jun-23 11:05S 32°55' E 151°46'0 0.0
2018-Jun-23 10:56S 32°55' E 151°46'0 0.2
2018-Jun-23 10:21S 32°55' E 151°46'2 1.4
2018-Jun-23 09:09S 32°54' E 151°46'2 4.4
2018-Jun-23 08:47S 32°55' E 151°47'0 0.3
2018-Jun-23 07:46S 32°55' E 151°46'1 3.3
2018-Jun-23 07:30S 32°54' E 151°46'1 0.3
2018-Jun-23 05:14S 32°53' E 151°46'1 3.3
2018-Jun-23 04:57S 32°54' E 151°46'2 4.1
2018-Jun-23 04:30S 32°55' E 151°48'2 2.1
2018-Jun-23 03:40S 32°55' E 151°46'1 1.2
2018-Jun-23 02:34S 32°53' E 151°46'1 6.9
2018-Jun-23 02:29S 32°54' E 151°46'1 1.7
2018-Jun-23 01:38S 32°55' E 151°46'0 1.1
2018-Jun-23 01:29S 32°55' E 151°46'1 1.6
2018-Jun-23 00:57S 32°55' E 151°47'1 1.2
2018-Jun-23 00:30S 32°55' E 151°48'1 2.3
2018-Jun-23 00:00S 32°55' E 151°46'0 0.0
2018-Jun-22 23:30S 32°55' E 151°46'0 0.0
2018-Jun-22 23:00S 32°55' E 151°46'0 0.0
2018-Jun-22 22:29S 32°55' E 151°46'0 0.0
2018-Jun-22 21:58S 32°55' E 151°46'0 0.0
2018-Jun-22 21:28S 32°55' E 151°46'0 0.0
2018-Jun-22 21:00S 32°55' E 151°46'0 0.0
2018-Jun-22 20:28S 32°55' E 151°46'0 0.0
2018-Jun-22 20:00S 32°55' E 151°46'0 0.0
2018-Jun-22 19:30S 32°55' E 151°46'0 0.0
2018-Jun-22 19:00S 32°55' E 151°46'0 0.0
2018-Jun-22 18:30S 32°55' E 151°46'0 0.0
2018-Jun-22 15:36S 32°55' E 151°46'0 0.0
2018-Jun-22 15:30S 32°55' E 151°46'0 0.0
2018-Jun-22 14:56S 32°55' E 151°46'0 0.0
2018-Jun-22 14:28S 32°55' E 151°46'0 0.0
2018-Jun-22 13:58S 32°55' E 151°46'0 0.0
2018-Jun-22 13:30S 32°55' E 151°46'0 0.0
2018-Jun-22 12:57S 32°55' E 151°46'0 0.0
2018-Jun-22 12:27S 32°55' E 151°46'0 0.0
2018-Jun-22 12:00S 32°55' E 151°46'0 0.0
2018-Jun-22 11:27S 32°55' E 151°46'1 2.2
2018-Jun-22 10:59S 32°54' E 151°46'0 0.8
2018-Jun-22 10:25S 32°55' E 151°46'1 2.7
2018-Jun-22 10:00S 32°55' E 151°48'1 2.1
2018-Jun-22 09:29S 32°55' E 151°46'1 2.0
2018-Jun-22 09:00S 32°54' E 151°46'1 1.4
2018-Jun-22 08:05S 32°53' E 151°46'0 3.0
2018-Jun-22 08:00S 32°53' E 151°46'2 3.4
2018-Jun-22 07:30S 32°55' E 151°46'1 2.5
2018-Jun-22 07:00S 32°55' E 151°48'2 1.3
2018-Jun-22 05:14S 32°53' E 151°46'2 7.1
2018-Jun-22 04:55S 32°55' E 151°47'1 1.7
2018-Jun-22 04:28S 32°55' E 151°46'2 1.7
2018-Jun-22 03:31S 32°53' E 151°46'0 0.3
2018-Jun-22 03:30S 32°53' E 151°46'2 4.3
2018-Jun-22 02:58S 32°55' E 151°48'1 2.9
2018-Jun-22 02:29S 32°55' E 151°46'0 0.7
2018-Jun-22 01:57S 32°54' E 151°46'1 0.4
2018-Jun-21 23:29S 32°55' E 151°46'0 0.0
2018-Jun-21 22:58S 32°55' E 151°46'0 0.0
2018-Jun-21 22:19S 32°55' E 151°46'0 0.0
2018-Jun-21 21:27S 32°55' E 151°46'0 0.0
2018-Jun-21 20:09S 32°55' E 151°46'0 0.0
2018-Jun-21 19:11S 32°55' E 151°46'0 0.0
2018-Jun-21 18:54S 32°55' E 151°46'0 0.0
2018-Jun-21 18:24S 32°55' E 151°46'0 0.0
2018-Jun-21 17:52S 32°55' E 151°46'0 0.0
2018-Jun-21 17:30S 32°55' E 151°46'0 0.0
2018-Jun-21 17:00S 32°55' E 151°46'0 0.0
2018-Jun-21 16:30S 32°55' E 151°46'0 0.0
2018-Jun-21 16:00S 32°55' E 151°46'0 0.0
2018-Jun-21 15:30S 32°55' E 151°46'0 0.0
2018-Jun-21 14:58S 32°55' E 151°46'0 0.0
2018-Jun-21 14:30S 32°55' E 151°46'0 0.0
2018-Jun-21 13:57S 32°55' E 151°46'0 0.0
2018-Jun-21 13:30S 32°55' E 151°46'0 0.0
2018-Jun-21 13:00S 32°55' E 151°46'0 0.0
2018-Jun-21 12:29S 32°55' E 151°46'0 0.0
2018-Jun-21 11:57S 32°55' E 151°46'0 0.0
2018-Jun-21 11:30S 32°55' E 151°46'0 0.6
2018-Jun-21 10:53S 32°55' E 151°46'1 3.7
2018-Jun-21 10:30S 32°54' E 151°46'2 3.4
2018-Jun-21 09:59S 32°55' E 151°46'0 0.0
2018-Jun-21 07:47S 32°55' E 151°46'0 0.0
2018-Jun-21 07:24S 32°55' E 151°46'0 0.0
2018-Jun-21 06:44S 32°55' E 151°46'0 0.0
2018-Jun-21 06:29S 32°55' E 151°46'0 0.0
2018-Jun-21 05:59S 32°55' E 151°46'0 0.0
2018-Jun-21 05:30S 32°55' E 151°46'0 0.8
2018-Jun-21 04:57S 32°55' E 151°46'1 1.4
2018-Jun-21 04:05S 32°54' E 151°46'0 3.7
2018-Jun-21 03:58S 32°54' E 151°46'2 3.7
2018-Jun-21 03:30S 32°55' E 151°48'0 0.7
2018-Jun-21 03:00S 32°55' E 151°48'1 2.6
2018-Jun-21 02:26S 32°54' E 151°46'1 1.0
2018-Jun-21 01:43S 32°54' E 151°46'2 7.4
2018-Jun-21 01:29S 32°55' E 151°47'1 1.3
2018-Jun-21 01:00S 32°55' E 151°46'0 0.3
2018-Jun-20 23:27S 32°54' E 151°46'2 3.5
2018-Jun-20 23:00S 32°55' E 151°48'1 1.3
2018-Jun-20 22:28S 32°55' E 151°47'1 1.3
2018-Jun-20 21:52S 32°55' E 151°46'0 0.0
2018-Jun-20 21:30S 32°55' E 151°46'0 0.2
2018-Jun-20 21:00S 32°55' E 151°46'2 1.5
2018-Jun-20 19:43S 32°53' E 151°46'2 3.3
2018-Jun-20 19:06S 32°55' E 151°47'1 7.6
2018-Jun-20 18:58S 32°55' E 151°48'1 2.8
2018-Jun-20 18:27S 32°55' E 151°46'0 0.2
2018-Jun-20 17:59S 32°55' E 151°46'1 0.8
2018-Jun-20 17:12S 32°55' E 151°46'0 0.4
2018-Jun-20 16:52S 32°55' E 151°46'0 0.0
2018-Jun-20 16:28S 32°55' E 151°46'0 0.0
2018-Jun-20 16:00S 32°55' E 151°46'0 0.0
2018-Jun-20 15:21S 32°55' E 151°46'0 0.2
2018-Jun-20 14:53S 32°55' E 151°46'0 0.2
2018-Jun-20 14:14S 32°55' E 151°46'0 0.6
2018-Jun-20 13:59S 32°55' E 151°46'0 0.1
2018-Jun-20 11:01S 32°55' E 151°46'1 8.2
2018-Jun-20 10:57S 32°55' E 151°47'2 0.4
2018-Jun-20 06:35S 32°54' E 151°46'1 5.3
2018-Jun-20 06:19S 32°55' E 151°47'1 0.9
2018-Jun-20 05:39S 32°55' E 151°47'2 2.1
2018-Jun-20 04:42S 32°54' E 151°46'0 0.2
2018-Jun-20 04:03S 32°53' E 151°46'2 5.3
2018-Jun-20 03:43S 32°55' E 151°47'1 2.0
2018-Jun-20 03:09S 32°54' E 151°46'1 2.7
2018-Jun-20 02:51S 32°53' E 151°46'0 0.1
2018-Jun-20 02:26S 32°53' E 151°46'2 4.8
2018-Jun-20 01:58S 32°55' E 151°48'2 1.2
2018-Jun-20 00:05S 32°53' E 151°46'0 0.5
2018-Jun-19 23:58S 32°53' E 151°46'2 4.4
2018-Jun-19 23:27S 32°55' E 151°47'1 2.3
2018-Jun-19 22:57S 32°55' E 151°46'0 0.9
2018-Jun-19 22:30S 32°54' E 151°46'1 0.4
2018-Jun-19 19:42S 32°55' E 151°46'0 0.0
2018-Jun-19 17:39S 32°55' E 151°46'0 0.0
2018-Jun-19 17:25S 32°55' E 151°46'0 0.0
2018-Jun-19 14:51S 32°55' E 151°46'0 0.0
2018-Jun-19 14:06S 32°55' E 151°46'0 0.1
2018-Jun-19 13:59S 32°55' E 151°46'0 0.0
2018-Jun-19 11:46S 32°55' E 151°46'0 0.0
2018-Jun-19 06:59S 32°55' E 151°46'0 0.0
2018-Jun-18 06:19S 32°55' E 151°46'0 0.0
2018-Jun-18 06:00S 32°55' E 151°46'0 0.0
2018-Jun-18 05:30S 32°55' E 151°46'0 0.0
2018-Jun-18 04:55S 32°55' E 151°46'1 2.6
2018-Jun-18 04:30S 32°54' E 151°46'1 0.7
2018-Jun-18 03:30S 32°54' E 151°46'2 3.9
2018-Jun-18 02:58S 32°55' E 151°48'2 3.1
2018-Jun-18 02:28S 32°55' E 151°46'2 3.5
2018-Jun-18 01:57S 32°54' E 151°46'0 0.2
2018-Jun-18 01:28S 32°53' E 151°46'2 3.3
2018-Jun-18 00:56S 32°55' E 151°47'0 0.4
2018-Jun-18 00:07S 32°55' E 151°46'0 0.5
2018-Jun-17 23:57S 32°55' E 151°46'2 1.1
2018-Jun-17 22:31S 32°54' E 151°46'0 8.9
2018-Jun-17 22:30S 32°54' E 151°46'2 3.8
2018-Jun-17 22:00S 32°55' E 151°48'1 0.1
2018-Jun-17 03:04S 32°55' E 151°46'0 6.5
2018-Jun-17 03:00S 32°55' E 151°47'2 1.8
2018-Jun-17 02:10S 32°54' E 151°46'1 0.5
2018-Jun-17 00:28S 32°55' E 151°46'2 2.3
2018-Jun-16 23:46S 32°53' E 151°46'0 0.0
2018-Jun-16 23:25S 32°53' E 151°46'0 0.2
2018-Jun-16 21:50S 32°54' E 151°46'1 2.7
2018-Jun-16 21:29S 32°55' E 151°46'2 4.0
2018-Jun-16 20:57S 32°54' E 151°49'2 4.2
2018-Jun-16 20:26S 32°55' E 151°46'1 0.0
2018-Jun-16 03:13S 32°55' E 151°46'2 1.8
2018-Jun-16 02:06S 32°53' E 151°46'0 3.5
2018-Jun-16 02:01S 32°54' E 151°46'2 4.0
2018-Jun-16 01:29S 32°55' E 151°48'2 1.6
2018-Jun-16 00:15S 32°55' E 151°46'0 0.9
2018-Jun-15 23:45S 32°55' E 151°46'1 3.1
2018-Jun-15 23:29S 32°54' E 151°46'1 0.2
2018-Jun-15 15:20S 32°55' E 151°46'2 1.8
2018-Jun-15 14:16S 32°53' E 151°46'2 3.8
2018-Jun-15 13:40S 32°55' E 151°48'2 1.2
2018-Jun-15 12:16S 32°55' E 151°46'2 1.4
2018-Jun-15 10:54S 32°53' E 151°46'0 0.2
2018-Jun-15 10:29S 32°53' E 151°46'2 0.9
2018-Jun-15 08:21S 32°55' E 151°46'2 1.9
2018-Jun-15 07:26S 32°54' E 151°46'2 4.4
2018-Jun-15 07:00S 32°55' E 151°47'  

Dump ship's entire track history